Time;durP1;ratioP1;P1;durP2;ratioP2;P2;SDS_P1;SDS_P2;PMS_P1;PMS_P2;Temp;Humidity;BMP_temperature;BMP_pressure;BME280_temperature;BME280_humidity;BME280_pressure;Samples;Min_cycle;Max_cycle;Signal;HPM_P1;HPM_P2
2023/08/06 00:02:36;;;;;;;3.45;2.00;;;;;;;15.63;88.83;96936.38;10417623;28;20127;-64
2023/08/06 00:07:56;;;;;;;3.38;2.08;;;;;;;15.66;88.55;96932.28;10389952;28;20068;-64
2023/08/06 00:13:17;;;;;;;3.83;1.98;;;;;;;15.65;89.46;96928.03;10418020;28;20082;-64
2023/08/06 00:18:38;;;;;;;3.10;1.77;;;;;;;15.66;89.03;96930.19;10403181;28;20533;-64
2023/08/06 00:23:59;;;;;;;2.92;1.50;;;;;;;15.65;89.44;96925.94;10416869;28;20072;-64
2023/08/06 00:29:19;;;;;;;2.70;1.92;;;;;;;15.69;89.50;96908.47;10416789;28;20065;-63
2023/08/06 00:34:41;;;;;;;2.25;1.30;;;;;;;15.68;89.31;96896.50;10389070;28;20054;-64
2023/08/06 00:40:02;;;;;;;3.00;1.48;;;;;;;15.64;89.22;96887.94;10417266;28;20045;-64
2023/08/06 00:45:23;;;;;;;1.88;1.20;;;;;;;15.60;89.52;96893.41;10415974;28;20116;-64
2023/08/06 00:50:44;;;;;;;2.22;1.23;;;;;;;15.60;89.26;96898.28;10415874;28;20042;-64
2023/08/06 00:56:06;;;;;;;2.20;1.30;;;;;;;15.56;89.55;96870.75;10415646;28;20175;-64
2023/08/06 01:01:27;;;;;;;2.78;1.65;;;;;;;15.54;89.79;96862.25;10387804;28;20129;-64
2023/08/06 01:07:12;;;;;;;1.85;1.45;;;;;;;15.51;89.66;96854.38;10415955;28;20460;-64
2023/08/06 01:12:43;;;;;;;3.03;1.38;;;;;;;15.54;89.92;96862.25;10407782;28;20454;-64
2023/08/06 01:18:05;;;;;;;1.90;1.48;;;;;;;15.56;89.54;96856.69;10415920;28;20041;-64
2023/08/06 01:23:26;;;;;;;2.97;1.80;;;;;;;15.54;89.32;96851.00;10415793;28;20041;-64
2023/08/06 01:28:53;;;;;;;3.85;1.90;;;;;;;15.59;89.54;96844.13;10400754;28;20411;-64
2023/08/06 01:34:16;;;;;;;3.00;1.80;;;;;;;15.57;89.91;96843.34;10414621;28;20041;-64
2023/08/06 01:39:39;;;;;;;4.53;1.75;;;;;;;15.54;90.28;96853.81;10414131;28;20430;-63
2023/08/06 01:45:00;;;;;;;2.53;1.98;;;;;;;15.53;89.88;96838.28;10386749;28;20403;-64
2023/08/06 01:50:21;;;;;;;2.70;1.85;;;;;;;15.50;89.73;96842.41;10414377;28;20395;-64
2023/08/06 01:55:42;;;;;;;2.50;1.60;;;;;;;15.43;89.58;96840.75;10414518;28;20053;-64
2023/08/06 02:01:03;;;;;;;2.28;1.52;;;;;;;15.42;90.05;96837.22;10414963;28;20479;-67
2023/08/06 02:06:23;;;;;;;2.22;1.58;;;;;;;15.44;90.41;96836.56;10420854;28;20053;-70
2023/08/06 02:11:44;;;;;;;2.47;1.52;;;;;;;15.43;90.66;96824.59;10416234;28;20056;-64
2023/08/06 02:17:06;;;;;;;2.00;1.73;;;;;;;15.44;90.50;96834.50;10419724;28;20476;-64
2023/08/06 02:22:26;;;;;;;2.53;1.80;;;;;;;15.44;90.19;96848.56;10421719;28;20041;-64
2023/08/06 02:27:47;;;;;;;2.30;1.85;;;;;;;15.42;90.08;96848.47;10407611;28;20120;-64
2023/08/06 02:33:08;;;;;;;5.43;3.75;;;;;;;15.41;90.24;96837.88;10421159;28;20418;-64
2023/08/06 02:38:30;;;;;;;11.98;8.07;;;;;;;15.43;90.51;96829.50;10420959;28;20042;-64
2023/08/06 02:43:52;;;;;;;6.57;5.65;;;;;;;15.45;90.56;96823.97;10407158;28;20092;-64
2023/08/06 02:49:13;;;;;;;8.05;6.93;;;;;;;15.42;90.42;96811.19;10420537;28;20045;-63
2023/08/06 02:54:34;;;;;;;11.57;7.97;;;;;;;15.41;90.74;96807.66;10420221;28;20057;-62
2023/08/06 02:59:55;;;;;;;15.45;10.52;;;;;;;15.41;90.58;96804.13;10420185;28;20057;-63
2023/08/06 03:05:17;;;;;;;10.75;7.68;;;;;;;15.43;90.28;96807.00;10406056;28;20068;-63
2023/08/06 03:10:40;;;;;;;5.73;4.80;;;;;;;15.42;90.56;96795.03;10406133;28;20510;-65
2023/08/06 03:16:03;;;;;;;4.95;3.08;;;;;;;15.43;90.43;96787.31;10407778;28;20403;-64
2023/08/06 03:21:24;;;;;;;4.68;3.30;;;;;;;15.41;90.72;96785.16;10419925;28;20080;-64
2023/08/06 03:26:45;;;;;;;5.78;4.28;;;;;;;15.47;90.70;96779.03;10418940;28;20073;-64
2023/08/06 03:32:08;;;;;;;7.90;5.13;;;;;;;15.44;90.28;96771.88;10404983;28;20498;-64
2023/08/06 03:37:29;;;;;;;6.30;4.53;;;;;;;15.42;90.40;96769.00;10418725;28;20037;-64
2023/08/06 03:42:49;;;;;;;5.70;3.50;;;;;;;15.41;90.56;96765.47;10418274;28;20167;-64
2023/08/06 03:48:10;;;;;;;2.42;1.80;;;;;;;15.38;90.34;96757.63;10390802;28;20065;-63
2023/08/06 03:53:31;;;;;;;1.70;1.30;;;;;;;15.34;90.34;96744.16;10404421;28;20557;-64
2023/08/06 03:58:52;;;;;;;2.58;1.20;;;;;;;15.36;90.07;96749.16;10417745;28;20053;-64
2023/08/06 04:04:13;;;;;;;1.90;1.45;;;;;;;15.33;90.09;96739.19;10417611;28;20077;-64
2023/08/06 04:09:34;;;;;;;3.15;2.17;;;;;;;15.25;90.27;96728.41;10417291;28;20451;-63
2023/08/06 04:14:57;;;;;;;3.22;2.40;;;;;;;15.28;90.53;96718.66;10417467;28;20046;-64
2023/08/06 04:20:17;;;;;;;3.20;2.50;;;;;;;15.28;90.09;96720.75;10403228;28;20045;-64
2023/08/06 04:25:38;;;;;;;3.75;2.78;;;;;;;15.31;90.38;96716.63;10403044;28;20060;-64
2023/08/06 04:30:59;;;;;;;4.60;2.80;;;;;;;15.37;90.29;96708.41;10416792;28;20092;-64
2023/08/06 04:36:21;;;;;;;4.28;2.80;;;;;;;15.40;90.48;96716.25;10402191;28;20049;-63
2023/08/06 04:41:42;;;;;;;5.28;2.70;;;;;;;15.43;90.60;96700.16;10402256;28;20394;-64
2023/08/06 04:47:03;;;;;;;3.63;2.40;;;;;;;15.48;90.21;96698.19;10402661;28;20099;-63
2023/08/06 04:52:27;;;;;;;3.72;1.90;;;;;;;15.56;89.88;96690.03;10402556;28;20460;-64
2023/08/06 04:57:48;;;;;;;2.88;1.90;;;;;;;15.63;89.96;96688.84;10415694;28;20042;-63
2023/08/06 05:03:08;;;;;;;2.92;1.80;;;;;;;15.68;89.88;96679.88;10416573;28;20144;-63
2023/08/06 05:08:29;;;;;;;3.88;1.88;;;;;;;15.79;89.92;96683.00;10416525;28;20056;-64
2023/08/06 05:13:50;;;;;;;2.90;1.63;;;;;;;15.84;89.81;96678.94;10416296;28;20049;-64
2023/08/06 05:19:11;;;;;;;1.83;1.33;;;;;;;15.91;89.54;96686.91;10415156;28;20068;-63
2023/08/06 05:24:31;;;;;;;2.15;1.50;;;;;;;16.08;89.41;96685.28;10414714;28;20065;-64
2023/08/06 05:29:54;;;;;;;2.40;1.52;;;;;;;16.15;89.03;96672.81;10414903;28;20108;-64
2023/08/06 05:35:15;;;;;;;1.70;1.10;;;;;;;16.16;88.65;96688.34;10414485;28;20095;-63
2023/08/06 05:40:35;;;;;;;1.95;1.35;;;;;;;16.23;88.74;96670.25;10415298;28;20068;-64
2023/08/06 05:45:57;;;;;;;1.48;1.20;;;;;;;16.37;88.38;96669.91;10414326;28;20053;-63
2023/08/06 05:51:19;;;;;;;1.60;1.10;;;;;;;16.50;88.29;96657.63;10414132;28;20135;-64
2023/08/06 05:56:40;;;;;;;3.92;1.20;;;;;;;16.69;88.28;96667.28;10414060;28;20061;-64
2023/08/06 06:02:00;;;;;;;3.20;1.17;;;;;;;16.93;87.95;96675.66;10414898;28;20547;-65
2023/08/06 06:07:21;;;;;;;1.25;0.90;;;;;;;17.15;87.33;96664.22;10414703;28;20084;-65
2023/08/06 06:12:42;;;;;;;4.72;1.17;;;;;;;17.34;86.86;96660.47;10413483;28;20069;-66
2023/08/06 06:18:03;;;;;;;1.58;0.70;;;;;;;17.49;86.30;96658.69;10414582;28;20065;-66
2023/08/06 06:23:24;;;;;;;1.42;0.70;;;;;;;17.66;85.81;96666.16;10414475;28;20452;-65
2023/08/06 06:28:45;;;;;;;1.40;0.60;;;;;;;17.77;84.71;96664.31;10414089;28;20088;-65
2023/08/06 06:34:05;;;;;;;1.38;0.70;;;;;;;17.81;84.69;96667.22;10414441;28;20519;-65
2023/08/06 06:39:26;;;;;;;4.70;1.30;;;;;;;17.95;84.61;96656.25;10413199;28;20124;-65
2023/08/06 06:44:47;;;;;;;2.05;1.23;;;;;;;17.92;83.70;96654.75;10413955;28;20065;-65
2023/08/06 06:50:08;;;;;;;1.90;1.10;;;;;;;18.00;83.79;96662.69;10413628;28;20048;-65
2023/08/06 06:55:29;;;;;;;1.92;1.70;;;;;;;18.25;83.35;96661.09;10413686;28;20095;-64
2023/08/06 07:00:50;;;;;;;2.38;1.80;;;;;;;18.51;82.72;96664.41;10416150;28;20167;-64
2023/08/06 07:06:12;;;;;;;3.42;2.40;;;;;;;18.69;81.78;96664.06;10420478;28;20081;-64
2023/08/06 07:11:33;;;;;;;3.03;2.25;;;;;;;18.90;81.32;96661.63;10420776;28;20137;-64
2023/08/06 07:16:53;;;;;;;3.95;2.58;;;;;;;19.00;80.65;96656.13;10419414;28;20112;-64
2023/08/06 07:22:14;;;;;;;5.30;2.70;;;;;;;19.34;80.18;96661.66;10420324;28;20117;-64
2023/08/06 07:27:35;;;;;;;3.85;2.85;;;;;;;19.38;78.96;96664.53;10419060;28;20129;-65
2023/08/06 07:32:56;;;;;;;4.38;2.95;;;;;;;19.31;78.77;96658.09;10420073;28;20124;-64
2023/08/06 07:38:16;;;;;;;4.95;3.10;;;;;;;19.16;77.77;96650.75;10419874;28;20220;-65
2023/08/06 07:43:37;;;;;;;4.38;2.97;;;;;;;19.13;77.21;96646.47;10419313;28;20069;-65
2023/08/06 07:48:58;;;;;;;3.63;3.28;;;;;;;19.08;77.10;96647.78;10418113;28;20136;-65
2023/08/06 07:54:19;;;;;;;6.60;3.58;;;;;;;19.11;76.61;96638.69;10419091;28;20131;-64
2023/08/06 07:59:39;;;;;;;4.22;3.28;;;;;;;19.32;76.67;96642.53;10418060;28;20121;-64
2023/08/06 08:05:00;;;;;;;5.57;3.25;;;;;;;19.57;76.04;96643.66;10418336;28;20543;-64
2023/08/06 08:10:21;;;;;;;4.80;2.90;;;;;;;19.83;75.03;96636.94;10418601;28;20075;-65
2023/08/06 08:15:42;;;;;;;5.47;3.08;;;;;;;19.85;74.28;96632.00;10417531;28;20517;-65
2023/08/06 08:21:03;;;;;;;5.88;3.95;;;;;;;19.98;74.27;96630.06;10417026;28;20045;-65
2023/08/06 08:26:24;;;;;;;4.63;2.80;;;;;;;20.08;73.65;96633.03;10418017;28;20065;-64
2023/08/06 08:31:45;;;;;;;4.40;2.42;;;;;;;19.90;71.75;96624.28;10417578;28;20125;-64
2023/08/06 08:37:06;;;;;;;5.38;2.50;;;;;;;19.78;72.36;96624.13;10416589;28;20108;-65
2023/08/06 08:42:26;;;;;;;5.25;2.30;;;;;;;19.75;71.51;96628.31;10416992;28;20137;-64
2023/08/06 08:47:47;;;;;;;3.33;1.90;;;;;;;19.70;71.36;96624.75;10388521;28;20138;-64
2023/08/06 08:53:08;;;;;;;3.10;1.60;;;;;;;19.80;71.29;96621.34;10416538;28;20399;-64
2023/08/06 08:58:29;;;;;;;1.67;1.45;;;;;;;19.61;70.19;96620.38;10416603;28;20049;-64
2023/08/06 09:03:53;;;;;;;2.03;1.25;;;;;;;19.81;70.30;96605.78;10415243;28;20127;-64
2023/08/06 09:09:17;;;;;;;1.63;1.10;;;;;;;20.01;69.17;96612.41;10401460;28;20104;-64
2023/08/06 09:14:37;;;;;;;4.03;1.10;;;;;;;20.22;68.70;96604.88;10401347;28;20061;-64
2023/08/06 09:19:59;;;;;;;1.38;1.10;;;;;;;20.50;67.80;96600.94;10414898;28;20464;-64
2023/08/06 09:25:21;;;;;;;1.83;1.17;;;;;;;20.29;66.95;96597.88;10415584;28;20066;-65
2023/08/06 09:30:42;;;;;;;3.77;1.30;;;;;;;19.93;67.41;96600.25;10415593;28;20444;-64
2023/08/06 09:36:10;;;;;;;2.40;1.13;;;;;;;19.51;67.51;96598.25;10415443;28;20481;-64
2023/08/06 09:41:31;;;;;;;2.10;1.00;;;;;;;19.39;67.92;96598.78;10414371;28;20128;-64
2023/08/06 09:46:56;;;;;;;3.90;1.00;;;;;;;19.62;67.84;96591.38;10415041;28;20041;-64
2023/08/06 09:52:17;;;;;;;1.77;0.73;;;;;;;19.91;67.26;96595.28;10415076;28;20045;-64
2023/08/06 09:57:40;;;;;;;2.10;0.80;;;;;;;20.02;67.11;96581.97;10400152;28;20116;-64
2023/08/06 10:03:01;;;;;;;2.07;0.90;;;;;;;20.01;66.59;96575.59;10413310;28;20061;-64
2023/08/06 10:08:21;;;;;;;1.95;0.80;;;;;;;20.22;66.84;96573.69;10413119;28;20491;-64
2023/08/06 10:13:42;;;;;;;6.35;1.13;;;;;;;20.47;66.55;96574.72;10412773;28;20088;-64
2023/08/06 10:19:03;;;;;;;2.20;0.90;;;;;;;21.10;66.09;96569.59;10398056;28;20168;-64
2023/08/06 10:24:24;;;;;;;1.00;0.57;;;;;;;21.48;64.87;96562.06;10411384;28;20085;-64
2023/08/06 10:29:45;;;;;;;1.27;0.77;;;;;;;21.93;63.73;96563.03;10412426;28;20116;-64
2023/08/06 10:35:06;;;;;;;0.85;0.65;;;;;;;22.29;62.63;96559.59;10413252;28;20069;-64
2023/08/06 10:40:26;;;;;;;1.30;0.80;;;;;;;22.22;62.43;96552.50;10419421;28;20080;-64
2023/08/06 10:45:49;;;;;;;1.05;0.60;;;;;;;22.08;61.50;96541.78;10419311;28;20129;-64
2023/08/06 10:51:10;;;;;;;;;;;;;;;22.10;60.37;96560.97;10419505;28;20049;-64
2023/08/06 10:56:31;;;;;;;1.33;0.65;;;;;;;22.15;60.46;96553.88;10418490;28;19971;-64
2023/08/06 11:01:52;;;;;;;1.00;0.70;;;;;;;21.74;60.03;96548.03;10380843;28;1079983;-63
2023/08/06 11:07:13;;;;;;;0.90;0.50;;;;;;;21.35;59.83;96547.81;10421078;28;20125;-64
2023/08/06 11:12:37;;;;;;;2.47;0.50;;;;;;;21.07;59.72;96545.47;10420564;28;20446;-64
2023/08/06 11:17:58;;;;;;;1.58;0.50;;;;;;;21.11;59.60;96550.44;10420409;28;20495;-64
2023/08/06 11:23:18;;;;;;;0.75;0.40;;;;;;;21.07;59.50;96539.78;10419896;28;20460;-64
2023/08/06 11:28:40;;;;;;;0.80;0.40;;;;;;;20.99;58.83;96545.41;10418948;28;20048;-64
2023/08/06 11:34:01;;;;;;;1.23;0.57;;;;;;;20.72;58.82;96555.81;10419773;28;20049;-64
2023/08/06 11:39:21;;;;;;;1.55;0.70;;;;;;;20.37;59.19;96565.38;10418723;28;20048;-64
2023/08/06 11:44:45;;;;;;;2.38;0.60;;;;;;;20.06;59.75;96555.81;10419472;28;20519;-64
2023/08/06 11:50:06;;;;;;;1.63;0.68;;;;;;;20.02;59.83;96553.66;10419124;28;20053;-65
2023/08/06 11:55:30;;;;;;;1.95;0.70;;;;;;;20.11;60.37;96557.28;10418057;28;20120;-64
2023/08/06 12:00:51;;;;;;;1.40;0.60;;;;;;;19.94;60.67;96551.44;10418055;28;20065;-64
2023/08/06 12:06:12;;;;;;;2.03;0.68;;;;;;;19.79;60.90;96549.84;10418301;28;20350;-65
2023/08/06 12:11:33;;;;;;;0.90;0.50;;;;;;;19.77;61.44;96552.63;10418310;28;20048;-64
2023/08/06 12:16:53;;;;;;;1.95;0.77;;;;;;;19.99;61.98;96538.03;10418138;28;20539;-64
2023/08/06 12:22:14;;;;;;;2.35;0.80;;;;;;;20.65;61.96;96537.31;10417966;28;20116;-64
2023/08/06 12:27:35;;;;;;;1.88;0.50;;;;;;;21.43;61.45;96522.31;10417552;28;20483;-65
2023/08/06 12:32:56;;;;;;;1.50;0.60;;;;;;;22.32;60.57;96529.78;10402710;28;20081;-65
2023/08/06 12:38:17;;;;;;;2.40;0.88;;;;;;;22.45;58.44;96531.22;10417402;28;20559;-65
2023/08/06 12:43:38;;;;;;;1.90;0.95;;;;;;;22.25;58.79;96534.03;10417045;28;20069;-64
2023/08/06 12:48:59;;;;;;;1.60;0.95;;;;;;;22.26;59.08;96529.75;10416909;28;20506;-65
2023/08/06 12:54:20;;;;;;;1.63;0.60;;;;;;;22.43;58.46;96530.50;10416384;28;20565;-64
2023/08/06 12:59:41;;;;;;;2.20;0.70;;;;;;;22.39;58.14;96534.06;10415157;28;20522;-64
2023/08/06 13:05:05;;;;;;;1.00;0.45;;;;;;;22.43;58.21;96534.06;10415797;28;20491;-64
2023/08/06 13:10:27;;;;;;;1.67;0.70;;;;;;;22.73;57.62;96538.38;10416037;28;20041;-64
2023/08/06 13:15:47;;;;;;;1.42;0.63;;;;;;;22.78;56.76;96543.34;10415837;28;20080;-64
2023/08/06 13:21:08;;;;;;;1.42;0.80;;;;;;;22.91;56.73;96546.22;10415678;28;20125;-65
2023/08/06 13:26:29;;;;;;;0.80;0.47;;;;;;;23.28;56.09;96539.09;10415596;28;20117;-64
2023/08/06 13:31:50;;;;;;;2.15;0.63;;;;;;;23.88;55.18;96545.38;10414903;28;20069;-65
2023/08/06 13:37:11;;;;;;;1.35;0.40;;;;;;;24.30;52.82;96535.19;10414289;28;20076;-65
2023/08/06 13:42:32;;;;;;;0.80;0.50;;;;;;;24.51;52.48;96536.50;10414966;28;20084;-64
2023/08/06 13:47:55;;;;;;;0.63;0.40;;;;;;;24.66;51.95;96537.84;10414156;28;20360;-64
2023/08/06 13:53:16;;;;;;;2.38;0.63;;;;;;;24.52;50.68;96543.66;10415123;28;20080;-64
2023/08/06 13:58:37;;;;;;;1.33;0.40;;;;;;;24.00;49.72;96542.47;10414830;28;20045;-64
2023/08/06 14:03:58;;;;;;;1.13;0.57;;;;;;;23.75;49.62;96541.84;10413774;28;20129;-64
2023/08/06 14:09:18;;;;;;;0.88;0.60;;;;;;;24.08;49.15;96539.56;10412004;28;20540;-64
2023/08/06 14:14:39;;;;;;;1.55;0.70;;;;;;;24.01;48.92;96543.88;10420789;28;20125;-64
2023/08/06 14:20:00;;;;;;;1.25;0.50;;;;;;;23.65;48.81;96536.19;10421987;28;20415;-74
2023/08/06 14:25:21;;;;;;;1.92;0.77;;;;;;;23.22;48.90;96541.94;10393904;28;20160;-70
2023/08/06 14:30:43;;;;;;;1.40;0.70;;;;;;;23.17;49.53;96554.75;10421227;28;20117;-71
2023/08/06 14:36:03;;;;;;;1.35;0.50;;;;;;;23.27;49.19;96542.66;10407054;28;20045;-74
2023/08/06 14:41:24;;;;;;;3.08;0.90;;;;;;;23.53;49.27;96542.59;10420934;28;20062;-76
2023/08/06 14:46:45;;;;;;;2.42;0.60;;;;;;;23.83;48.42;96549.66;10420453;28;20121;-67
2023/08/06 14:52:06;;;;;;;2.13;0.50;;;;;;;23.81;48.48;96552.50;10406867;28;20121;-67
2023/08/06 14:57:27;;;;;;;1.90;0.52;;;;;;;23.51;48.51;96545.44;10419991;28;20395;-66
2023/08/06 15:02:48;;;;;;;1.83;0.70;;;;;;;22.88;47.91;96553.34;10421012;28;20183;-66
2023/08/06 15:08:09;;;;;;;2.03;0.68;;;;;;;22.51;49.18;96554.00;10419491;28;20049;-74
2023/08/06 15:13:31;;;;;;;1.00;0.40;;;;;;;22.17;49.50;96559.56;10419711;28;20050;-75
2023/08/06 15:18:51;;;;;;;2.35;0.55;;;;;;;21.91;49.88;96563.72;10419407;28;20487;-73
2023/08/06 15:24:13;;;;;;;1.15;0.70;;;;;;;21.89;51.11;96558.00;10391075;28;20088;-67
2023/08/06 15:29:33;;;;;;;1.65;0.50;;;;;;;21.96;50.76;96545.28;10420144;28;20052;-68
2023/08/06 15:34:54;;;;;;;1.40;0.57;;;;;;;22.04;51.05;96558.81;10419748;28;20152;-67
2023/08/06 15:40:15;;;;;;;1.70;0.75;;;;;;;21.97;51.60;96558.06;10405047;28;20041;-69
2023/08/06 15:45:36;;;;;;;1.60;0.43;;;;;;;21.81;51.53;96560.09;10419162;28;20037;-65
2023/08/06 15:50:57;;;;;;;1.20;0.60;;;;;;;21.64;51.47;96556.50;10419326;28;20052;-65
2023/08/06 15:56:18;;;;;;;1.67;0.60;;;;;;;21.40;51.78;96557.75;10419333;28;20073;-65
2023/08/06 16:01:39;;;;;;;2.97;0.70;;;;;;;21.07;53.03;96551.13;10417769;28;20073;-73
2023/08/06 16:06:59;;;;;;;3.05;0.70;;;;;;;21.05;53.61;96545.44;10403847;28;20060;-69
2023/08/06 16:12:21;;;;;;;2.58;0.85;;;;;;;20.83;53.83;96545.97;10418032;28;20117;-69
2023/08/06 16:17:47;;;;;;;1.95;0.50;;;;;;;20.36;55.67;96558.25;10417221;28;20175;-69
2023/08/06 16:23:08;;;;;;;3.25;0.70;;;;;;;19.96;57.18;96559.22;10403070;28;20049;-68
2023/08/06 16:28:29;;;;;;;1.50;0.60;;;;;;;19.69;58.02;96558.91;10416997;28;20045;-69
2023/08/06 16:33:50;;;;;;;2.17;0.50;;;;;;;19.58;59.08;96562.28;10416022;28;20184;-69
2023/08/06 16:39:11;;;;;;;2.88;0.50;;;;;;;19.30;60.38;96590.84;10416185;28;20041;-68
2023/08/06 16:44:32;;;;;;;0.38;0.20;;;;;;;18.86;60.00;96564.03;10416211;28;20103;-72
2023/08/06 16:49:53;;;;;;;0.80;0.20;;;;;;;18.52;60.95;96561.28;10402022;28;20038;-67
2023/08/06 16:55:15;;;;;;;1.42;0.10;;;;;;;18.38;61.10;96561.06;10388562;28;20059;-70
2023/08/06 17:00:36;;;;;;;3.30;0.40;;;;;;;18.30;61.83;96563.72;10415365;28;20095;-69
2023/08/06 17:06:02;;;;;;;0.65;0.30;;;;;;;18.13;61.81;96559.88;10415584;28;20057;-76
2023/08/06 17:11:23;;;;;;;2.65;0.70;;;;;;;17.96;62.39;96561.69;10387624;28;20072;-74
2023/08/06 17:16:43;;;;;;;1.50;0.20;;;;;;;17.81;62.33;96557.13;10387385;28;20096;-84
2023/08/06 17:22:04;;;;;;;0.60;0.15;;;;;;;17.73;63.21;96563.31;10387128;28;20049;-69
2023/08/06 17:27:25;;;;;;;1.40;0.30;;;;;;;17.59;63.47;96559.47;10414566;28;20117;-69
2023/08/06 17:32:46;;;;;;;1.70;0.30;;;;;;;17.36;64.39;96578.72;10351123;28;20548;-68
2023/08/06 17:38:07;;;;;;;2.53;0.43;;;;;;;17.12;65.62;96578.16;10374257;28;20038;-67
2023/08/06 17:43:28;;;;;;;4.13;0.40;;;;;;;16.94;66.88;96572.09;10374062;28;20142;-67
2023/08/06 17:48:49;;;;;;;1.17;0.32;;;;;;;16.77;68.46;96563.22;10332566;28;20061;-67
2023/08/06 17:54:09;;;;;;;3.97;0.40;;;;;;;16.56;69.67;96566.91;10372765;28;20145;-67
2023/08/06 17:59:30;;;;;;;2.40;0.20;;;;;;;16.38;71.63;96563.63;10373103;28;20042;-67
2023/08/06 18:04:51;;;;;;;1.13;0.20;;;;;;;16.28;72.93;96566.88;10372600;28;20143;-67
2023/08/06 18:10:14;;;;;;;0.57;0.20;;;;;;;16.14;74.19;96581.31;10372829;28;20156;-67
2023/08/06 18:15:36;;;;;;;0.60;0.20;;;;;;;16.07;75.42;96595.88;10373097;28;20050;-68
2023/08/06 18:20:57;;;;;;;0.80;0.20;;;;;;;15.98;76.54;96587.19;10399649;28;20080;-67
2023/08/06 18:26:18;;;;;;;1.02;0.20;;;;;;;15.89;77.43;96596.06;10413263;28;20121;-66
2023/08/06 18:31:39;;;;;;;3.03;0.20;;;;;;;15.81;77.88;96601.47;10413234;28;20065;-68
2023/08/06 18:37:00;;;;;;;0.30;0.10;;;;;;;15.70;78.53;96609.63;10413236;28;20061;-67
2023/08/06 18:42:21;;;;;;;0.60;0.10;;;;;;;15.56;79.10;96612.00;10412958;28;20069;-66
2023/08/06 18:47:41;;;;;;;1.35;0.10;;;;;;;15.49;79.94;96618.09;10399273;28;20064;-67
2023/08/06 18:53:03;;;;;;;1.02;0.20;;;;;;;15.37;79.79;96612.81;10398869;28;20074;-67
2023/08/06 18:58:23;;;;;;;0.52;0.20;;;;;;;15.36;80.11;96617.00;10418417;28;20073;-67
2023/08/06 19:03:44;;;;;;;0.38;0.17;;;;;;;15.33;80.51;96615.47;10421027;28;20150;-71
2023/08/06 19:09:05;;;;;;;0.77;0.10;;;;;;;15.32;80.68;96611.22;10419856;28;20041;-66
2023/08/06 19:14:26;;;;;;;0.20;0.08;;;;;;;15.29;81.06;96612.56;10419781;28;20073;-71
2023/08/06 19:19:47;;;;;;;0.25;0.10;;;;;;;15.31;81.05;96609.81;10392193;28;20046;-66
2023/08/06 19:25:08;;;;;;;0.75;0.00;;;;;;;15.28;81.08;96602.69;10391736;28;20061;-67
2023/08/06 19:30:29;;;;;;;0.30;0.10;;;;;;;15.20;81.68;96610.84;10420064;28;20052;-68
2023/08/06 19:35:51;;;;;;;0.30;0.10;;;;;;;15.17;81.78;96612.91;10423153;28;20102;-77
2023/08/06 19:41:12;;;;;;;2.25;0.10;;;;;;;15.10;82.57;96614.06;10421257;28;20046;-70
2023/08/06 19:46:34;;;;;;;1.70;0.03;;;;;;;15.10;82.58;96617.59;10422166;28;20044;-78
2023/08/06 19:51:55;;;;;;;0.20;0.00;;;;;;;15.09;82.76;96609.81;10436885;28;20049;-77
2023/08/06 19:57:24;;;;;;;1.27;0.00;;;;;;;15.07;82.93;96616.09;10895937;22;20376;31
2023/08/06 20:02:44;;;;;;;0.65;0.00;;;;;;;15.05;82.98;96618.81;10290249;28;20527;-78
2023/08/06 20:08:05;;;;;;;1.63;0.05;;;;;;;14.98;83.05;96628.47;10293358;28;20071;-76
2023/08/06 20:13:26;;;;;;;1.38;0.00;;;;;;;14.94;83.28;96625.50;10285013;28;20496;-76
2023/08/06 20:18:47;;;;;;;0.10;0.00;;;;;;;14.90;83.42;96619.75;10302862;28;20462;-79
2023/08/06 20:24:08;;;;;;;2.55;0.10;;;;;;;14.86;83.01;96619.59;10274389;28;20141;-72
2023/08/06 20:29:28;;;;;;;1.77;0.00;;;;;;;14.81;82.85;96632.09;10295953;28;20118;-72
2023/08/06 20:34:49;;;;;;;0.15;0.00;;;;;;;14.78;82.85;96633.41;10294817;28;20078;-73
2023/08/06 20:40:10;;;;;;;0.17;0.00;;;;;;;14.71;82.73;96637.38;10300677;28;20101;-74
2023/08/06 20:45:31;;;;;;;0.17;0.00;;;;;;;14.67;82.69;96634.41;10296640;28;20097;-73
2023/08/06 20:50:52;;;;;;;0.00;0.00;;;;;;;14.62;82.60;96652.50;10294442;28;20474;-73
2023/08/06 20:56:16;;;;;;;0.52;0.00;;;;;;;14.64;82.28;96661.00;10293107;28;20117;-73
2023/08/06 21:01:37;;;;;;;3.10;0.00;;;;;;;14.60;82.25;96651.06;10293077;28;20061;-73
2023/08/06 21:06:58;;;;;;;2.40;0.00;;;;;;;14.59;81.81;96658.06;10280408;28;20063;-73
2023/08/06 21:12:19;;;;;;;1.00;0.03;;;;;;;14.52;81.65;96667.63;10293680;28;20455;-72
2023/08/06 21:17:39;;;;;;;0.90;0.00;;;;;;;14.45;81.16;96665.97;10293502;28;20523;-73
2023/08/06 21:23:00;;;;;;;0.45;0.00;;;;;;;14.45;81.36;96668.78;10293067;28;20050;-73
2023/08/06 21:28:21;;;;;;;0.10;0.00;;;;;;;14.42;81.14;96675.69;10293310;28;20454;-73
2023/08/06 21:33:43;;;;;;;0.17;0.00;;;;;;;14.41;80.83;96674.25;10293165;28;20409;-73
2023/08/06 21:39:04;;;;;;;1.35;0.00;;;;;;;14.39;80.70;96670.66;10293815;28;20038;-73
2023/08/06 21:44:25;;;;;;;1.13;0.10;;;;;;;14.38;80.72;96681.16;10279380;28;20042;-72
2023/08/06 21:49:45;;;;;;;0.45;0.00;;;;;;;14.34;80.33;96669.78;10292619;28;20074;-73
2023/08/06 21:55:07;;;;;;;0.00;0.00;;;;;;;14.31;80.43;96671.06;10292649;28;20047;-74
2023/08/06 22:00:28;;;;;;;0.20;0.00;;;;;;;14.28;79.88;96680.78;10292408;28;20093;-73
2023/08/06 22:05:48;;;;;;;0.28;0.00;;;;;;;14.21;80.13;96679.13;10292364;28;20050;-74
2023/08/06 22:11:09;;;;;;;0.00;0.00;;;;;;;14.18;79.96;96686.75;10292526;28;20393;-73
2023/08/06 22:16:30;;;;;;;2.25;0.00;;;;;;;14.14;80.02;96680.28;10292239;28;20055;-72
2023/08/06 22:21:51;;;;;;;0.32;0.00;;;;;;;14.12;80.37;96666.88;10293037;28;20043;-73
2023/08/06 22:27:13;;;;;;;0.08;0.00;;;;;;;14.07;80.34;96687.03;10305254;28;20043;-73
2023/08/06 22:32:33;;;;;;;0.10;0.00;;;;;;;14.06;80.32;96680.69;10295571;28;20042;-73
2023/08/06 22:37:54;;;;;;;2.72;0.00;;;;;;;14.07;80.21;96673.00;10299473;28;20497;-72
2023/08/06 22:43:15;;;;;;;0.50;0.00;;;;;;;14.07;80.28;96676.50;10299377;28;20043;-72
2023/08/06 22:48:36;;;;;;;0.30;0.00;;;;;;;14.05;80.17;96684.88;10298993;28;20477;-73
2023/08/06 22:54:00;;;;;;;2.25;0.00;;;;;;;14.02;80.29;96675.66;10298862;28;20047;-73
2023/08/06 22:59:21;;;;;;;0.10;0.00;;;;;;;13.94;80.11;96674.63;10299299;28;20398;-72
2023/08/06 23:04:42;;;;;;;0.38;0.00;;;;;;;13.88;80.68;96683.53;10298363;28;20070;-72
2023/08/06 23:10:05;;;;;;;0.10;0.00;;;;;;;13.80;80.91;96688.09;10298428;28;20086;-73
2023/08/06 23:15:25;;;;;;;0.55;0.00;;;;;;;13.74;81.16;96685.81;10298076;28;20047;-73
2023/08/06 23:20:46;;;;;;;0.98;0.00;;;;;;;13.72;81.20;96688.53;10299109;28;20063;-73
2023/08/06 23:26:07;;;;;;;0.00;0.00;;;;;;;13.67;81.85;96698.88;10297763;28;20370;-72
2023/08/06 23:31:29;;;;;;;0.22;0.00;;;;;;;13.61;82.50;96689.53;10297546;28;20066;-72
2023/08/06 23:36:50;;;;;;;0.10;0.00;;;;;;;13.64;82.99;96685.41;10284065;28;20049;-72
2023/08/06 23:42:11;;;;;;;2.58;0.00;;;;;;;13.58;83.27;96674.69;10297782;28;20404;-72
2023/08/06 23:47:32;;;;;;;1.85;0.00;;;;;;;13.52;83.84;96682.88;10296874;28;20051;-72
2023/08/06 23:52:53;;;;;;;1.25;0.00;;;;;;;13.46;84.13;96674.94;10296583;28;20046;-72
2023/08/06 23:58:14;;;;;;;0.10;0.00;;;;;;;13.43;84.85;96659.41;10296682;28;20058;-73
